sensor_id;sensor_type;location;lat;lon;timestamp;P1;durP1;ratioP1;P2;durP2;ratioP2
32038;SDS011;18549;42.286;22.688;2023-11-21T00:01:15;57.70;;;29.63;;
32038;SDS011;18549;42.286;22.688;2023-11-21T00:03:43;49.33;;;28.50;;
32038;SDS011;18549;42.286;22.688;2023-11-21T00:06:10;48.13;;;27.87;;
32038;SDS011;18549;42.286;22.688;2023-11-21T00:08:38;51.10;;;27.47;;
32038;SDS011;18549;42.286;22.688;2023-11-21T00:11:05;54.43;;;28.13;;
32038;SDS011;18549;42.286;22.688;2023-11-21T00:13:34;53.37;;;29.43;;
32038;SDS011;18549;42.286;22.688;2023-11-21T00:16:03;59.17;;;29.13;;
32038;SDS011;18549;42.286;22.688;2023-11-21T00:18:31;51.43;;;30.27;;
32038;SDS011;18549;42.286;22.688;2023-11-21T00:20:58;57.93;;;28.90;;
32038;SDS011;18549;42.286;22.688;2023-11-21T00:23:26;52.10;;;30.90;;
32038;SDS011;18549;42.286;22.688;2023-11-21T00:25:53;50.13;;;30.47;;
32038;SDS011;18549;42.286;22.688;2023-11-21T00:28:21;58.47;;;28.83;;
32038;SDS011;18549;42.286;22.688;2023-11-21T00:30:50;53.70;;;30.07;;
32038;SDS011;18549;42.286;22.688;2023-11-21T00:33:17;76.07;;;40.50;;
32038;SDS011;18549;42.286;22.688;2023-11-21T00:35:45;98.13;;;43.03;;
32038;SDS011;18549;42.286;22.688;2023-11-21T00:38:12;90.13;;;42.43;;
32038;SDS011;18549;42.286;22.688;2023-11-21T00:40:40;73.30;;;39.43;;
32038;SDS011;18549;42.286;22.688;2023-11-21T00:43:07;87.13;;;42.53;;
32038;SDS011;18549;42.286;22.688;2023-11-21T00:45:35;81.97;;;44.50;;
32038;SDS011;18549;42.286;22.688;2023-11-21T00:48:04;82.30;;;43.67;;
32038;SDS011;18549;42.286;22.688;2023-11-21T00:50:33;84.97;;;45.07;;
32038;SDS011;18549;42.286;22.688;2023-11-21T00:53:01;89.13;;;45.27;;
32038;SDS011;18549;42.286;22.688;2023-11-21T00:55:28;98.30;;;53.83;;
32038;SDS011;18549;42.286;22.688;2023-11-21T00:57:56;120.23;;;56.80;;
32038;SDS011;18549;42.286;22.688;2023-11-21T01:00:23;111.97;;;58.77;;
32038;SDS011;18549;42.286;22.688;2023-11-21T01:02:51;104.83;;;56.23;;
32038;SDS011;18549;42.286;22.688;2023-11-21T01:05:20;99.90;;;53.27;;
32038;SDS011;18549;42.286;22.688;2023-11-21T01:07:48;102.60;;;54.00;;
32038;SDS011;18549;42.286;22.688;2023-11-21T01:10:15;105.17;;;55.23;;
32038;SDS011;18549;42.286;22.688;2023-11-21T01:12:43;115.73;;;54.27;;
32038;SDS011;18549;42.286;22.688;2023-11-21T01:15:10;99.73;;;50.80;;
32038;SDS011;18549;42.286;22.688;2023-11-21T01:17:38;97.13;;;50.00;;
32038;SDS011;18549;42.286;22.688;2023-11-21T01:20:06;83.40;;;48.97;;
32038;SDS011;18549;42.286;22.688;2023-11-21T01:22:38;97.00;;;49.13;;
32038;SDS011;18549;42.286;22.688;2023-11-21T01:25:06;104.63;;;55.13;;
32038;SDS011;18549;42.286;22.688;2023-11-21T01:27:34;111.17;;;57.40;;
32038;SDS011;18549;42.286;22.688;2023-11-21T01:30:02;112.20;;;58.37;;
32038;SDS011;18549;42.286;22.688;2023-11-21T01:32:32;102.68;;;54.75;;
32038;SDS011;18549;42.286;22.688;2023-11-21T01:35:00;103.20;;;54.70;;
32038;SDS011;18549;42.286;22.688;2023-11-21T01:37:27;95.13;;;51.83;;
32038;SDS011;18549;42.286;22.688;2023-11-21T01:39:57;82.50;;;47.43;;
32038;SDS011;18549;42.286;22.688;2023-11-21T01:42:26;97.30;;;51.10;;
32038;SDS011;18549;42.286;22.688;2023-11-21T01:44:54;103.47;;;55.50;;
32038;SDS011;18549;42.286;22.688;2023-11-21T01:47:22;103.10;;;55.97;;
32038;SDS011;18549;42.286;22.688;2023-11-21T01:49:49;98.73;;;53.90;;
32038;SDS011;18549;42.286;22.688;2023-11-21T01:52:17;92.43;;;48.53;;
32038;SDS011;18549;42.286;22.688;2023-11-21T01:54:45;67.60;;;37.37;;
32038;SDS011;18549;42.286;22.688;2023-11-21T01:57:14;66.40;;;37.13;;
32038;SDS011;18549;42.286;22.688;2023-11-21T01:59:41;84.80;;;42.40;;
32038;SDS011;18549;42.286;22.688;2023-11-21T02:02:11;64.67;;;34.20;;
32038;SDS011;18549;42.286;22.688;2023-11-21T02:04:38;51.53;;;30.50;;
32038;SDS011;18549;42.286;22.688;2023-11-21T02:07:06;48.37;;;29.07;;
32038;SDS011;18549;42.286;22.688;2023-11-21T02:09:33;48.30;;;25.80;;
32038;SDS011;18549;42.286;22.688;2023-11-21T02:12:03;45.70;;;25.23;;
32038;SDS011;18549;42.286;22.688;2023-11-21T02:14:34;40.10;;;23.40;;
32038;SDS011;18549;42.286;22.688;2023-11-21T02:17:01;37.77;;;22.70;;
32038;SDS011;18549;42.286;22.688;2023-11-21T02:19:30;36.07;;;20.40;;
32038;SDS011;18549;42.286;22.688;2023-11-21T02:21:57;32.27;;;19.03;;
32038;SDS011;18549;42.286;22.688;2023-11-21T02:24:31;37.07;;;20.83;;
32038;SDS011;18549;42.286;22.688;2023-11-21T02:26:59;37.83;;;20.60;;
32038;SDS011;18549;42.286;22.688;2023-11-21T02:29:26;35.90;;;20.93;;
32038;SDS011;18549;42.286;22.688;2023-11-21T02:31:54;42.27;;;22.27;;
32038;SDS011;18549;42.286;22.688;2023-11-21T02:34:22;34.13;;;22.33;;
32038;SDS011;18549;42.286;22.688;2023-11-21T02:36:51;32.70;;;21.70;;
32038;SDS011;18549;42.286;22.688;2023-11-21T02:39:19;42.63;;;22.27;;
32038;SDS011;18549;42.286;22.688;2023-11-21T02:41:49;35.13;;;22.23;;
32038;SDS011;18549;42.286;22.688;2023-11-21T02:44:17;32.40;;;21.63;;
32038;SDS011;18549;42.286;22.688;2023-11-21T02:46:44;40.23;;;22.23;;
32038;SDS011;18549;42.286;22.688;2023-11-21T02:49:12;39.07;;;23.60;;
32038;SDS011;18549;42.286;22.688;2023-11-21T02:51:39;39.77;;;24.90;;
32038;SDS011;18549;42.286;22.688;2023-11-21T02:54:07;48.33;;;26.33;;
32038;SDS011;18549;42.286;22.688;2023-11-21T02:56:35;40.97;;;24.30;;
32038;SDS011;18549;42.286;22.688;2023-11-21T02:59:03;39.37;;;23.57;;
32038;SDS011;18549;42.286;22.688;2023-11-21T03:01:30;35.67;;;21.37;;
32038;SDS011;18549;42.286;22.688;2023-11-21T03:03:58;35.00;;;20.93;;
32038;SDS011;18549;42.286;22.688;2023-11-21T03:06:25;33.53;;;19.30;;
32038;SDS011;18549;42.286;22.688;2023-11-21T03:08:53;36.90;;;21.10;;
32038;SDS011;18549;42.286;22.688;2023-11-21T03:11:20;39.00;;;23.07;;
32038;SDS011;18549;42.286;22.688;2023-11-21T03:13:48;44.70;;;25.23;;
32038;SDS011;18549;42.286;22.688;2023-11-21T03:16:18;43.20;;;24.60;;
32038;SDS011;18549;42.286;22.688;2023-11-21T03:18:46;40.50;;;22.87;;
32038;SDS011;18549;42.286;22.688;2023-11-21T03:21:13;41.13;;;22.77;;
32038;SDS011;18549;42.286;22.688;2023-11-21T03:23:41;42.77;;;23.83;;
32038;SDS011;18549;42.286;22.688;2023-11-21T03:26:11;52.03;;;28.73;;
32038;SDS011;18549;42.286;22.688;2023-11-21T03:28:39;53.87;;;28.70;;
32038;SDS011;18549;42.286;22.688;2023-11-21T03:31:06;52.37;;;28.13;;
32038;SDS011;18549;42.286;22.688;2023-11-21T03:33:35;59.63;;;28.20;;
32038;SDS011;18549;42.286;22.688;2023-11-21T03:36:03;43.57;;;26.23;;
32038;SDS011;18549;42.286;22.688;2023-11-21T03:38:33;40.13;;;25.87;;
32038;SDS011;18549;42.286;22.688;2023-11-21T03:41:00;41.07;;;26.00;;
32038;SDS011;18549;42.286;22.688;2023-11-21T03:43:28;44.13;;;26.67;;
32038;SDS011;18549;42.286;22.688;2023-11-21T03:45:56;38.70;;;24.80;;
32038;SDS011;18549;42.286;22.688;2023-11-21T03:48:23;36.10;;;22.90;;
32038;SDS011;18549;42.286;22.688;2023-11-21T03:50:52;37.17;;;24.03;;
32038;SDS011;18549;42.286;22.688;2023-11-21T03:53:20;45.43;;;24.90;;
32038;SDS011;18549;42.286;22.688;2023-11-21T03:55:47;45.80;;;26.03;;
32038;SDS011;18549;42.286;22.688;2023-11-21T03:58:15;41.03;;;26.10;;
32038;SDS011;18549;42.286;22.688;2023-11-21T04:00:42;50.70;;;27.30;;
32038;SDS011;18549;42.286;22.688;2023-11-21T04:03:10;51.20;;;28.90;;
32038;SDS011;18549;42.286;22.688;2023-11-21T04:05:38;55.77;;;32.53;;
32038;SDS011;18549;42.286;22.688;2023-11-21T04:08:07;62.97;;;38.33;;
32038;SDS011;18549;42.286;22.688;2023-11-21T04:10:35;69.33;;;35.60;;
32038;SDS011;18549;42.286;22.688;2023-11-21T04:13:04;79.87;;;36.40;;
32038;SDS011;18549;42.286;22.688;2023-11-21T04:15:32;80.23;;;38.87;;
32038;SDS011;18549;42.286;22.688;2023-11-21T04:17:59;71.80;;;36.67;;
32038;SDS011;18549;42.286;22.688;2023-11-21T04:20:27;66.50;;;35.10;;
32038;SDS011;18549;42.286;22.688;2023-11-21T04:22:55;46.77;;;27.87;;
32038;SDS011;18549;42.286;22.688;2023-11-21T04:25:24;55.70;;;28.07;;
32038;SDS011;18549;42.286;22.688;2023-11-21T04:27:52;43.70;;;26.67;;
32038;SDS011;18549;42.286;22.688;2023-11-21T04:30:19;51.13;;;27.10;;
32038;SDS011;18549;42.286;22.688;2023-11-21T04:32:47;48.87;;;27.97;;
32038;SDS011;18549;42.286;22.688;2023-11-21T04:35:16;59.37;;;29.23;;
32038;SDS011;18549;42.286;22.688;2023-11-21T04:37:43;52.53;;;28.63;;
32038;SDS011;18549;42.286;22.688;2023-11-21T04:40:11;48.47;;;28.57;;
32038;SDS011;18549;42.286;22.688;2023-11-21T04:42:40;51.33;;;28.37;;
32038;SDS011;18549;42.286;22.688;2023-11-21T04:45:08;46.50;;;28.67;;
32038;SDS011;18549;42.286;22.688;2023-11-21T04:47:37;43.13;;;26.90;;
32038;SDS011;18549;42.286;22.688;2023-11-21T04:50:04;52.53;;;31.00;;
32038;SDS011;18549;42.286;22.688;2023-11-21T04:52:33;44.30;;;29.50;;
32038;SDS011;18549;42.286;22.688;2023-11-21T04:55:00;48.73;;;28.00;;
32038;SDS011;18549;42.286;22.688;2023-11-21T04:57:28;49.70;;;29.87;;
32038;SDS011;18549;42.286;22.688;2023-11-21T04:59:56;46.80;;;29.17;;
32038;SDS011;18549;42.286;22.688;2023-11-21T05:02:24;47.07;;;27.97;;
32038;SDS011;18549;42.286;22.688;2023-11-21T05:04:51;44.73;;;26.67;;
32038;SDS011;18549;42.286;22.688;2023-11-21T05:07:21;45.73;;;30.80;;
32038;SDS011;18549;42.286;22.688;2023-11-21T05:09:49;49.80;;;29.60;;
32038;SDS011;18549;42.286;22.688;2023-11-21T05:12:16;48.37;;;30.13;;
32038;SDS011;18549;42.286;22.688;2023-11-21T05:14:44;57.47;;;29.13;;
32038;SDS011;18549;42.286;22.688;2023-11-21T05:17:13;50.13;;;34.50;;
32038;SDS011;18549;42.286;22.688;2023-11-21T05:19:40;71.83;;;36.33;;
32038;SDS011;18549;42.286;22.688;2023-11-21T05:22:11;58.83;;;36.13;;
32038;SDS011;18549;42.286;22.688;2023-11-21T05:24:38;52.07;;;29.67;;
32038;SDS011;18549;42.286;22.688;2023-11-21T05:27:06;52.00;;;26.50;;
32038;SDS011;18549;42.286;22.688;2023-11-21T05:29:34;49.53;;;29.43;;
32038;SDS011;18549;42.286;22.688;2023-11-21T05:32:03;45.87;;;26.40;;
32038;SDS011;18549;42.286;22.688;2023-11-21T05:34:32;43.93;;;26.90;;
32038;SDS011;18549;42.286;22.688;2023-11-21T05:36:59;44.87;;;28.27;;
32038;SDS011;18549;42.286;22.688;2023-11-21T05:39:27;56.00;;;33.60;;
32038;SDS011;18549;42.286;22.688;2023-11-21T05:41:54;60.83;;;34.37;;
32038;SDS011;18549;42.286;22.688;2023-11-21T05:44:23;61.37;;;36.73;;
32038;SDS011;18549;42.286;22.688;2023-11-21T05:46:50;66.33;;;36.27;;
32038;SDS011;18549;42.286;22.688;2023-11-21T05:49:18;67.57;;;39.17;;
32038;SDS011;18549;42.286;22.688;2023-11-21T05:51:48;73.60;;;41.43;;
32038;SDS011;18549;42.286;22.688;2023-11-21T05:54:19;65.13;;;37.70;;
32038;SDS011;18549;42.286;22.688;2023-11-21T05:56:47;68.90;;;38.20;;
32038;SDS011;18549;42.286;22.688;2023-11-21T05:59:14;73.63;;;39.97;;
32038;SDS011;18549;42.286;22.688;2023-11-21T06:01:42;98.23;;;50.23;;
32038;SDS011;18549;42.286;22.688;2023-11-21T06:04:11;111.40;;;51.60;;
32038;SDS011;18549;42.286;22.688;2023-11-21T06:06:38;105.80;;;53.63;;
32038;SDS011;18549;42.286;22.688;2023-11-21T06:09:07;98.90;;;54.40;;
32038;SDS011;18549;42.286;22.688;2023-11-21T06:11:37;108.90;;;55.53;;
32038;SDS011;18549;42.286;22.688;2023-11-21T06:14:04;104.93;;;55.53;;
32038;SDS011;18549;42.286;22.688;2023-11-21T06:16:33;106.20;;;57.80;;
32038;SDS011;18549;42.286;22.688;2023-11-21T06:19:01;109.90;;;57.10;;
32038;SDS011;18549;42.286;22.688;2023-11-21T06:21:30;109.60;;;55.27;;
32038;SDS011;18549;42.286;22.688;2023-11-21T06:23:59;117.17;;;58.90;;
32038;SDS011;18549;42.286;22.688;2023-11-21T06:26:33;102.03;;;57.07;;
32038;SDS011;18549;42.286;22.688;2023-11-21T06:29:04;114.90;;;60.77;;
32038;SDS011;18549;42.286;22.688;2023-11-21T06:31:34;149.57;;;64.97;;
32038;SDS011;18549;42.286;22.688;2023-11-21T06:34:01;119.87;;;59.80;;
32038;SDS011;18549;42.286;22.688;2023-11-21T06:36:29;112.87;;;62.67;;
32038;SDS011;18549;42.286;22.688;2023-11-21T06:38:57;121.63;;;63.57;;
32038;SDS011;18549;42.286;22.688;2023-11-21T06:41:31;122.30;;;65.20;;
32038;SDS011;18549;42.286;22.688;2023-11-21T06:44:04;128.57;;;69.73;;
32038;SDS011;18549;42.286;22.688;2023-11-21T06:46:31;112.97;;;65.90;;
32038;SDS011;18549;42.286;22.688;2023-11-21T06:48:59;118.77;;;70.13;;
32038;SDS011;18549;42.286;22.688;2023-11-21T06:51:27;110.23;;;63.30;;
32038;SDS011;18549;42.286;22.688;2023-11-21T06:53:54;119.97;;;66.93;;
32038;SDS011;18549;42.286;22.688;2023-11-21T06:56:22;107.83;;;65.73;;
32038;SDS011;18549;42.286;22.688;2023-11-21T06:58:52;113.63;;;64.60;;
32038;SDS011;18549;42.286;22.688;2023-11-21T07:01:20;111.07;;;65.37;;
32038;SDS011;18549;42.286;22.688;2023-11-21T07:03:49;128.90;;;67.03;;
32038;SDS011;18549;42.286;22.688;2023-11-21T07:06:17;114.13;;;66.77;;
32038;SDS011;18549;42.286;22.688;2023-11-21T07:08:47;119.10;;;66.53;;
32038;SDS011;18549;42.286;22.688;2023-11-21T07:11:19;131.50;;;69.87;;
32038;SDS011;18549;42.286;22.688;2023-11-21T07:13:47;118.00;;;70.60;;
32038;SDS011;18549;42.286;22.688;2023-11-21T07:16:18;109.63;;;66.73;;
32038;SDS011;18549;42.286;22.688;2023-11-21T07:18:47;110.20;;;63.00;;
32038;SDS011;18549;42.286;22.688;2023-11-21T07:21:15;115.20;;;65.83;;
32038;SDS011;18549;42.286;22.688;2023-11-21T07:23:43;118.27;;;69.33;;
32038;SDS011;18549;42.286;22.688;2023-11-21T07:26:10;127.10;;;73.53;;
32038;SDS011;18549;42.286;22.688;2023-11-21T07:28:38;127.07;;;75.07;;
32038;SDS011;18549;42.286;22.688;2023-11-21T07:31:06;117.03;;;65.40;;
32038;SDS011;18549;42.286;22.688;2023-11-21T07:33:35;113.00;;;67.43;;
32038;SDS011;18549;42.286;22.688;2023-11-21T07:36:05;111.83;;;66.10;;
32038;SDS011;18549;42.286;22.688;2023-11-21T07:38:34;107.27;;;63.17;;
32038;SDS011;18549;42.286;22.688;2023-11-21T07:41:01;103.50;;;58.20;;
32038;SDS011;18549;42.286;22.688;2023-11-21T07:43:28;103.20;;;59.33;;
32038;SDS011;18549;42.286;22.688;2023-11-21T07:46:00;101.33;;;50.10;;
32038;SDS011;18549;42.286;22.688;2023-11-21T07:48:28;89.87;;;53.43;;
32038;SDS011;18549;42.286;22.688;2023-11-21T07:51:01;106.37;;;57.20;;
32038;SDS011;18549;42.286;22.688;2023-11-21T07:53:30;109.20;;;65.30;;
32038;SDS011;18549;42.286;22.688;2023-11-21T07:55:58;93.37;;;57.13;;
32038;SDS011;18549;42.286;22.688;2023-11-21T07:58:29;105.33;;;61.43;;
32038;SDS011;18549;42.286;22.688;2023-11-21T08:00:59;87.50;;;52.57;;
32038;SDS011;18549;42.286;22.688;2023-11-21T08:03:29;81.50;;;45.03;;
32038;SDS011;18549;42.286;22.688;2023-11-21T08:05:58;74.40;;;41.93;;
32038;SDS011;18549;42.286;22.688;2023-11-21T08:08:30;65.57;;;39.43;;
32038;SDS011;18549;42.286;22.688;2023-11-21T08:10:59;58.70;;;34.77;;
32038;SDS011;18549;42.286;22.688;2023-11-21T08:13:29;59.53;;;34.73;;
32038;SDS011;18549;42.286;22.688;2023-11-21T08:15:57;54.63;;;38.10;;
32038;SDS011;18549;42.286;22.688;2023-11-21T08:18:28;56.20;;;35.73;;
32038;SDS011;18549;42.286;22.688;2023-11-21T08:20:56;49.43;;;31.73;;
32038;SDS011;18549;42.286;22.688;2023-11-21T08:23:27;53.10;;;31.23;;
32038;SDS011;18549;42.286;22.688;2023-11-21T08:25:54;44.37;;;30.53;;
32038;SDS011;18549;42.286;22.688;2023-11-21T08:28:22;47.43;;;30.60;;
32038;SDS011;18549;42.286;22.688;2023-11-21T08:30:51;49.43;;;27.83;;
32038;SDS011;18549;42.286;22.688;2023-11-21T08:33:19;47.73;;;29.47;;
32038;SDS011;18549;42.286;22.688;2023-11-21T08:35:47;43.10;;;26.20;;
32038;SDS011;18549;42.286;22.688;2023-11-21T08:38:15;37.40;;;25.67;;
32038;SDS011;18549;42.286;22.688;2023-11-21T08:40:44;43.70;;;24.23;;
32038;SDS011;18549;42.286;22.688;2023-11-21T08:43:12;41.37;;;23.70;;
32038;SDS011;18549;42.286;22.688;2023-11-21T08:45:41;28.63;;;18.90;;
32038;SDS011;18549;42.286;22.688;2023-11-21T08:48:09;36.57;;;23.87;;
32038;SDS011;18549;42.286;22.688;2023-11-21T08:50:37;67.73;;;37.90;;
32038;SDS011;18549;42.286;22.688;2023-11-21T08:53:05;42.60;;;25.20;;
32038;SDS011;18549;42.286;22.688;2023-11-21T08:55:33;30.60;;;20.73;;
32038;SDS011;18549;42.286;22.688;2023-11-21T08:58:04;25.00;;;19.50;;
32038;SDS011;18549;42.286;22.688;2023-11-21T09:00:32;34.17;;;19.40;;
32038;SDS011;18549;42.286;22.688;2023-11-21T09:03:00;37.60;;;25.87;;
32038;SDS011;18549;42.286;22.688;2023-11-21T09:05:28;38.60;;;23.23;;
32038;SDS011;18549;42.286;22.688;2023-11-21T09:07:56;28.17;;;18.63;;
32038;SDS011;18549;42.286;22.688;2023-11-21T09:10:24;29.13;;;20.50;;
32038;SDS011;18549;42.286;22.688;2023-11-21T09:12:53;35.20;;;22.40;;
32038;SDS011;18549;42.286;22.688;2023-11-21T09:15:22;42.03;;;25.67;;
32038;SDS011;18549;42.286;22.688;2023-11-21T09:17:50;39.17;;;24.53;;
32038;SDS011;18549;42.286;22.688;2023-11-21T09:20:18;41.17;;;26.53;;
32038;SDS011;18549;42.286;22.688;2023-11-21T09:22:51;52.17;;;28.83;;
32038;SDS011;18549;42.286;22.688;2023-11-21T09:25:21;51.63;;;31.97;;
32038;SDS011;18549;42.286;22.688;2023-11-21T09:27:49;48.37;;;29.40;;
32038;SDS011;18549;42.286;22.688;2023-11-21T09:30:16;58.33;;;34.37;;
32038;SDS011;18549;42.286;22.688;2023-11-21T09:32:47;43.90;;;31.97;;
32038;SDS011;18549;42.286;22.688;2023-11-21T09:35:16;57.17;;;34.63;;
32038;SDS011;18549;42.286;22.688;2023-11-21T09:37:44;55.30;;;36.47;;
32038;SDS011;18549;42.286;22.688;2023-11-21T09:40:12;67.83;;;42.70;;
32038;SDS011;18549;42.286;22.688;2023-11-21T09:42:44;80.57;;;40.03;;
32038;SDS011;18549;42.286;22.688;2023-11-21T09:45:18;74.67;;;44.10;;
32038;SDS011;18549;42.286;22.688;2023-11-21T09:47:54;81.87;;;49.57;;
32038;SDS011;18549;42.286;22.688;2023-11-21T09:50:23;76.03;;;45.00;;
32038;SDS011;18549;42.286;22.688;2023-11-21T09:52:54;73.77;;;45.70;;
32038;SDS011;18549;42.286;22.688;2023-11-21T09:55:26;79.93;;;48.10;;
32038;SDS011;18549;42.286;22.688;2023-11-21T09:57:56;65.77;;;43.33;;
32038;SDS011;18549;42.286;22.688;2023-11-21T10:00:24;55.73;;;37.23;;
32038;SDS011;18549;42.286;22.688;2023-11-21T10:02:54;50.00;;;33.87;;
32038;SDS011;18549;42.286;22.688;2023-11-21T10:05:27;53.73;;;34.20;;
32038;SDS011;18549;42.286;22.688;2023-11-21T10:07:54;55.83;;;38.10;;
32038;SDS011;18549;42.286;22.688;2023-11-21T10:10:24;56.37;;;36.03;;
32038;SDS011;18549;42.286;22.688;2023-11-21T10:12:54;59.10;;;36.53;;
32038;SDS011;18549;42.286;22.688;2023-11-21T10:15:23;52.47;;;35.53;;
32038;SDS011;18549;42.286;22.688;2023-11-21T10:17:52;72.03;;;43.47;;
32038;SDS011;18549;42.286;22.688;2023-11-21T10:20:22;64.60;;;36.67;;
32038;SDS011;18549;42.286;22.688;2023-11-21T10:22:51;61.60;;;36.57;;
32038;SDS011;18549;42.286;22.688;2023-11-21T10:25:18;62.83;;;39.57;;
32038;SDS011;18549;42.286;22.688;2023-11-21T10:27:47;81.00;;;50.97;;
32038;SDS011;18549;42.286;22.688;2023-11-21T10:30:17;79.77;;;47.07;;
32038;SDS011;18549;42.286;22.688;2023-11-21T10:32:48;66.73;;;41.00;;
32038;SDS011;18549;42.286;22.688;2023-11-21T10:35:18;55.40;;;38.23;;
32038;SDS011;18549;42.286;22.688;2023-11-21T10:37:46;61.43;;;42.50;;
32038;SDS011;18549;42.286;22.688;2023-11-21T10:40:27;71.00;;;40.87;;
32038;SDS011;18549;42.286;22.688;2023-11-21T10:42:55;59.30;;;38.07;;
32038;SDS011;18549;42.286;22.688;2023-11-21T10:45:34;60.47;;;37.97;;
32038;SDS011;18549;42.286;22.688;2023-11-21T10:48:07;53.73;;;37.60;;
32038;SDS011;18549;42.286;22.688;2023-11-21T10:50:37;66.17;;;38.30;;
32038;SDS011;18549;42.286;22.688;2023-11-21T10:53:05;65.13;;;45.23;;
32038;SDS011;18549;42.286;22.688;2023-11-21T10:55:33;74.60;;;53.20;;
32038;SDS011;18549;42.286;22.688;2023-11-21T10:58:02;75.90;;;51.63;;
32038;SDS011;18549;42.286;22.688;2023-11-21T11:00:32;71.13;;;46.47;;
32038;SDS011;18549;42.286;22.688;2023-11-21T11:03:03;72.73;;;43.37;;
32038;SDS011;18549;42.286;22.688;2023-11-21T11:05:44;62.07;;;41.47;;
32038;SDS011;18549;42.286;22.688;2023-11-21T11:08:18;47.77;;;31.90;;
32038;SDS011;18549;42.286;22.688;2023-11-21T11:10:51;52.50;;;31.47;;
32038;SDS011;18549;42.286;22.688;2023-11-21T11:13:20;54.83;;;33.83;;
32038;SDS011;18549;42.286;22.688;2023-11-21T11:15:58;61.57;;;36.23;;
32038;SDS011;18549;42.286;22.688;2023-11-21T11:18:27;66.93;;;38.03;;
32038;SDS011;18549;42.286;22.688;2023-11-21T11:20:58;71.23;;;40.80;;
32038;SDS011;18549;42.286;22.688;2023-11-21T11:23:49;65.57;;;44.07;;
32038;SDS011;18549;42.286;22.688;2023-11-21T11:26:31;74.53;;;46.13;;
32038;SDS011;18549;42.286;22.688;2023-11-21T11:29:08;73.20;;;46.60;;
32038;SDS011;18549;42.286;22.688;2023-11-21T11:31:45;76.83;;;46.43;;
32038;SDS011;18549;42.286;22.688;2023-11-21T11:34:23;66.47;;;39.17;;
32038;SDS011;18549;42.286;22.688;2023-11-21T11:37:00;62.67;;;40.07;;
32038;SDS011;18549;42.286;22.688;2023-11-21T11:39:29;56.43;;;34.77;;
32038;SDS011;18549;42.286;22.688;2023-11-21T11:41:56;54.07;;;33.87;;
32038;SDS011;18549;42.286;22.688;2023-11-21T11:47:16;61.77;;;35.97;;
32038;SDS011;18549;42.286;22.688;2023-11-21T11:50:00;56.10;;;35.30;;
32038;SDS011;18549;42.286;22.688;2023-11-21T11:52:40;53.27;;;32.53;;
32038;SDS011;18549;42.286;22.688;2023-11-21T11:55:09;55.67;;;33.07;;
32038;SDS011;18549;42.286;22.688;2023-11-21T11:57:39;45.83;;;27.00;;
32038;SDS011;18549;42.286;22.688;2023-11-21T12:00:10;40.17;;;24.47;;
32038;SDS011;18549;42.286;22.688;2023-11-21T12:02:44;45.03;;;26.20;;
32038;SDS011;18549;42.286;22.688;2023-11-21T12:05:14;47.43;;;26.17;;
32038;SDS011;18549;42.286;22.688;2023-11-21T12:07:47;41.37;;;26.67;;
32038;SDS011;18549;42.286;22.688;2023-11-21T12:10:20;39.37;;;22.10;;
32038;SDS011;18549;42.286;22.688;2023-11-21T12:12:50;47.83;;;28.13;;
32038;SDS011;18549;42.286;22.688;2023-11-21T12:15:19;67.00;;;40.47;;
32038;SDS011;18549;42.286;22.688;2023-11-21T12:17:48;57.03;;;33.07;;
32038;SDS011;18549;42.286;22.688;2023-11-21T12:20:18;49.97;;;31.23;;
32038;SDS011;18549;42.286;22.688;2023-11-21T12:22:48;38.90;;;25.23;;
32038;SDS011;18549;42.286;22.688;2023-11-21T12:25:16;33.43;;;24.20;;
32038;SDS011;18549;42.286;22.688;2023-11-21T12:27:45;40.90;;;27.43;;
32038;SDS011;18549;42.286;22.688;2023-11-21T12:30:15;43.03;;;28.03;;
32038;SDS011;18549;42.286;22.688;2023-11-21T12:32:44;45.53;;;31.03;;
32038;SDS011;18549;42.286;22.688;2023-11-21T12:35:15;34.70;;;22.03;;
32038;SDS011;18549;42.286;22.688;2023-11-21T12:37:45;30.47;;;19.03;;
32038;SDS011;18549;42.286;22.688;2023-11-21T12:40:15;52.47;;;24.47;;
32038;SDS011;18549;42.286;22.688;2023-11-21T12:42:43;27.73;;;17.27;;
32038;SDS011;18549;42.286;22.688;2023-11-21T12:45:20;28.40;;;17.33;;
32038;SDS011;18549;42.286;22.688;2023-11-21T12:47:51;29.23;;;15.60;;
32038;SDS011;18549;42.286;22.688;2023-11-21T12:50:22;25.50;;;15.33;;
32038;SDS011;18549;42.286;22.688;2023-11-21T12:52:54;18.73;;;14.40;;
32038;SDS011;18549;42.286;22.688;2023-11-21T12:55:29;42.73;;;17.37;;
32038;SDS011;18549;42.286;22.688;2023-11-21T12:57:59;72.10;;;38.17;;
32038;SDS011;18549;42.286;22.688;2023-11-21T13:00:34;32.97;;;19.50;;
32038;SDS011;18549;42.286;22.688;2023-11-21T13:03:04;23.73;;;15.20;;
32038;SDS011;18549;42.286;22.688;2023-11-21T13:05:33;31.03;;;18.90;;
32038;SDS011;18549;42.286;22.688;2023-11-21T13:08:04;32.90;;;18.97;;
32038;SDS011;18549;42.286;22.688;2023-11-21T13:10:36;25.57;;;17.07;;
32038;SDS011;18549;42.286;22.688;2023-11-21T13:13:05;31.97;;;15.97;;
32038;SDS011;18549;42.286;22.688;2023-11-21T13:15:35;40.23;;;20.70;;
32038;SDS011;18549;42.286;22.688;2023-11-21T13:18:06;37.43;;;20.80;;
32038;SDS011;18549;42.286;22.688;2023-11-21T13:20:36;40.10;;;22.67;;
32038;SDS011;18549;42.286;22.688;2023-11-21T13:23:07;48.60;;;24.40;;
32038;SDS011;18549;42.286;22.688;2023-11-21T13:25:38;39.07;;;23.00;;
32038;SDS011;18549;42.286;22.688;2023-11-21T13:28:07;46.53;;;25.07;;
32038;SDS011;18549;42.286;22.688;2023-11-21T13:30:36;41.97;;;23.60;;
32038;SDS011;18549;42.286;22.688;2023-11-21T13:33:05;50.73;;;26.07;;
32038;SDS011;18549;42.286;22.688;2023-11-21T13:35:34;41.33;;;24.00;;
32038;SDS011;18549;42.286;22.688;2023-11-21T13:38:08;36.47;;;23.43;;
32038;SDS011;18549;42.286;22.688;2023-11-21T13:40:40;38.33;;;22.97;;
32038;SDS011;18549;42.286;22.688;2023-11-21T13:43:12;46.03;;;22.60;;
32038;SDS011;18549;42.286;22.688;2023-11-21T13:45:40;37.87;;;23.33;;
32038;SDS011;18549;42.286;22.688;2023-11-21T13:48:10;40.70;;;24.17;;
32038;SDS011;18549;42.286;22.688;2023-11-21T13:50:39;53.40;;;25.40;;
32038;SDS011;18549;42.286;22.688;2023-11-21T13:53:13;54.03;;;30.50;;
32038;SDS011;18549;42.286;22.688;2023-11-21T13:55:48;50.90;;;33.20;;
32038;SDS011;18549;42.286;22.688;2023-11-21T13:58:16;50.10;;;33.67;;
32038;SDS011;18549;42.286;22.688;2023-11-21T14:00:50;53.23;;;34.00;;
32038;SDS011;18549;42.286;22.688;2023-11-21T14:03:22;52.27;;;34.77;;
32038;SDS011;18549;42.286;22.688;2023-11-21T14:05:58;60.97;;;33.70;;
32038;SDS011;18549;42.286;22.688;2023-11-21T14:08:44;61.10;;;36.10;;
32038;SDS011;18549;42.286;22.688;2023-11-21T14:11:39;58.40;;;35.43;;
32038;SDS011;18549;42.286;22.688;2023-11-21T14:14:24;69.53;;;37.13;;
32038;SDS011;18549;42.286;22.688;2023-11-21T14:16:54;58.63;;;36.87;;
32038;SDS011;18549;42.286;22.688;2023-11-21T14:19:35;57.87;;;40.03;;
32038;SDS011;18549;42.286;22.688;2023-11-21T14:22:13;97.67;;;56.47;;